Time;durP1;ratioP1;P1;durP2;ratioP2;P2;SDS_P1;SDS_P2;PMS_P1;PMS_P2;Temp;Humidity;BMP_temperature;BMP_pressure;BME280_temperature;BME280_humidity;BME280_pressure;Samples;Min_cycle;Max_cycle;Signal;HPM_P1;HPM_P2
2023/10/24 00:01:34;;;;;;;9.85;6.25;;;;;;;11.79;100.00;100115.47;5091297;28;20023;-63
2023/10/24 00:03:59;;;;;;;10.23;6.13;;;;;;;11.79;100.00;100106.59;5092268;28;20028;-62
2023/10/24 00:06:25;;;;;;;15.65;9.02;;;;;;;11.71;100.00;100106.38;5098475;28;20031;-63
2023/10/24 00:08:50;;;;;;;12.00;5.63;;;;;;;11.75;100.00;100106.00;5090041;28;20107;-62
2023/10/24 00:11:18;;;;;;;8.40;5.88;;;;;;;11.77;100.00;100111.22;5073848;28;20030;-62
2023/10/24 00:13:43;;;;;;;9.02;5.07;;;;;;;11.76;100.00;100109.50;5089340;28;20028;-63
2023/10/24 00:16:11;;;;;;;7.32;5.05;;;;;;;11.76;100.00;100105.03;5088774;28;20027;-62
2023/10/24 00:18:36;;;;;;;11.43;8.60;;;;;;;11.71;100.00;100101.06;5088989;28;20059;-62
2023/10/24 00:21:04;;;;;;;10.38;7.85;;;;;;;11.73;100.00;100104.44;5090550;28;20110;-62
2023/10/24 00:23:29;;;;;;;12.40;8.60;;;;;;;11.72;100.00;100102.75;5102828;28;20521;-62
2023/10/24 00:25:55;;;;;;;6.10;5.50;;;;;;;11.77;100.00;100098.75;5073552;28;20032;-63
2023/10/24 00:28:20;;;;;;;13.20;5.60;;;;;;;11.77;100.00;100104.06;5090377;28;20545;-63
2023/10/24 00:30:46;;;;;;;9.38;8.15;;;;;;;11.68;100.00;100099.47;5091428;28;20475;-63
2023/10/24 00:33:11;;;;;;;8.27;5.47;;;;;;;11.67;100.00;100084.44;5091359;28;20035;-62
2023/10/24 00:35:36;;;;;;;11.23;5.07;;;;;;;11.70;100.00;100100.19;5088810;28;20110;-63
2023/10/24 00:38:02;;;;;;;6.35;5.18;;;;;;;11.71;100.00;100093.06;5061637;28;20032;-63
2023/10/24 00:40:27;;;;;;;11.85;5.13;;;;;;;11.68;100.00;100088.81;5085694;28;20111;-62
2023/10/24 00:42:53;;;;;;;10.68;8.02;;;;;;;11.53;100.00;100076.72;5088514;28;20161;-63
2023/10/24 00:45:18;;;;;;;15.60;5.53;;;;;;;11.69;100.00;100101.16;5091840;28;20107;-63
2023/10/24 00:47:45;;;;;;;8.73;7.93;;;;;;;11.61;100.00;100106.25;5086481;28;20032;-63
2023/10/24 00:50:12;;;;;;;7.13;5.30;;;;;;;11.67;100.00;100104.91;5075192;28;20036;-63
2023/10/24 00:52:39;;;;;;;12.02;4.93;;;;;;;11.67;100.00;100112.91;5091038;28;20020;-63
2023/10/24 00:55:07;;;;;;;8.25;7.28;;;;;;;11.57;100.00;100112.81;5082355;28;20046;-62
2023/10/24 00:57:33;;;;;;;8.25;4.93;;;;;;;11.63;100.00;100109.66;5072116;28;20471;-63
2023/10/24 00:59:59;;;;;;;9.80;5.38;;;;;;;11.64;100.00;100110.50;5063763;28;20025;-63
2023/10/24 01:02:25;;;;;;;6.75;5.15;;;;;;;11.65;100.00;100105.06;5082885;28;20424;-62
2023/10/24 01:04:54;;;;;;;6.32;4.88;;;;;;;11.63;100.00;100106.97;5088308;28;20073;-62
2023/10/24 01:07:23;;;;;;;7.93;4.95;;;;;;;11.63;100.00;100098.16;5066371;28;20036;-63
2023/10/24 01:09:48;;;;;;;6.47;4.20;;;;;;;11.64;100.00;100100.69;5071787;28;20491;-63
2023/10/24 01:12:14;;;;;;;7.85;4.00;;;;;;;11.76;100.00;100106.84;5079147;28;20081;-63
2023/10/24 01:14:42;;;;;;;9.05;6.63;;;;;;;11.54;100.00;100105.06;5056245;28;20039;-63
2023/10/24 01:17:11;;;;;;;9.55;4.28;;;;;;;11.56;100.00;100103.97;5090534;28;20031;-63
2023/10/24 01:19:37;;;;;;;5.53;4.05;;;;;;;11.54;100.00;100095.25;5072782;28;20020;-63
2023/10/24 01:22:02;;;;;;;4.18;3.78;;;;;;;11.57;100.00;100108.31;5072255;28;20368;-63
2023/10/24 01:24:28;;;;;;;4.63;4.10;;;;;;;11.59;100.00;100108.22;5090973;28;20510;-63
2023/10/24 01:26:58;;;;;;;6.20;5.63;;;;;;;11.48;100.00;100108.22;5090088;28;20019;-62
2023/10/24 01:29:24;;;;;;;6.53;5.72;;;;;;;11.45;100.00;100101.31;5064316;28;20038;-62
2023/10/24 01:31:49;;;;;;;4.75;3.80;;;;;;;11.54;100.00;100097.91;5077483;28;20025;-62
2023/10/24 01:34:17;;;;;;;4.07;3.70;;;;;;;11.49;100.00;100107.22;5088180;28;20050;-62
2023/10/24 01:36:42;;;;;;;6.00;4.25;;;;;;;11.54;100.00;100108.56;5089111;28;20095;-62
2023/10/24 01:39:09;;;;;;;5.90;3.85;;;;;;;11.54;100.00;100111.22;5076545;28;20111;-63
2023/10/24 01:41:35;;;;;;;7.00;5.60;;;;;;;11.47;100.00;100107.38;5072877;28;20494;-62
2023/10/24 01:44:03;;;;;;;5.80;4.05;;;;;;;11.50;100.00;100092.94;5087247;28;20025;-62
2023/10/24 01:46:29;;;;;;;5.80;4.13;;;;;;;11.52;100.00;100102.50;5053037;28;20020;-63
2023/10/24 01:48:54;;;;;;;4.43;4.03;;;;;;;11.47;100.00;100091.38;5094596;28;20125;-63
2023/10/24 01:51:20;;;;;;;9.70;3.95;;;;;;;11.52;100.00;100091.00;5091088;28;20118;-63
2023/10/24 01:53:45;;;;;;;6.00;5.10;;;;;;;11.41;100.00;100091.00;5066453;28;20025;-63
2023/10/24 01:56:12;;;;;;;8.55;5.90;;;;;;;11.37;100.00;100096.56;5092331;28;20028;-62
2023/10/24 01:58:37;;;;;;;3.88;3.58;;;;;;;11.49;100.00;100107.22;5094720;28;20027;-62
2023/10/24 02:01:02;;;;;;;5.38;3.05;;;;;;;11.48;100.00;100100.22;5094544;28;20387;-63
2023/10/24 02:03:28;;;;;;;5.32;4.80;;;;;;;11.34;100.00;100096.81;5093038;28;20024;-63
2023/10/24 02:05:53;;;;;;;4.80;3.45;;;;;;;11.47;100.00;100099.38;5074645;28;20070;-63
2023/10/24 02:08:19;;;;;;;5.18;3.60;;;;;;;11.39;100.00;100096.47;5062349;28;20391;-63
2023/10/24 02:10:44;;;;;;;5.10;4.00;;;;;;;11.40;100.00;100105.28;5075656;28;20053;-62
2023/10/24 02:13:10;;;;;;;6.50;5.90;;;;;;;11.33;100.00;100096.94;5084294;28;20059;-63
2023/10/24 02:15:38;;;;;;;9.55;4.13;;;;;;;11.35;100.00;100095.00;5075514;28;20008;-63
2023/10/24 02:18:03;;;;;;;5.20;3.55;;;;;;;11.37;100.00;100101.06;5094163;28;20095;-62
2023/10/24 02:20:28;;;;;;;6.25;3.85;;;;;;;11.40;100.00;100097.31;5075690;28;20050;-63
2023/10/24 02:22:54;;;;;;;7.43;4.28;;;;;;;11.35;100.00;100102.97;5093575;28;20024;-63
2023/10/24 02:25:19;;;;;;;6.57;4.20;;;;;;;11.39;100.00;100093.78;5093127;28;20445;-63
2023/10/24 02:27:44;;;;;;;3.45;3.15;;;;;;;11.37;100.00;100093.91;5094518;28;20024;-63
2023/10/24 02:30:10;;;;;;;4.45;3.92;;;;;;;11.30;100.00;100098.03;5094882;28;20028;-62
2023/10/24 02:32:35;;;;;;;3.90;3.50;;;;;;;11.28;100.00;100091.13;5094680;28;20540;-63
2023/10/24 02:35:01;;;;;;;6.00;4.00;;;;;;;11.25;100.00;100113.50;5095288;28;20028;-62
2023/10/24 02:37:26;;;;;;;4.43;3.63;;;;;;;11.08;100.00;100090.84;5093624;28;20031;-63
2023/10/24 02:39:52;;;;;;;6.22;5.40;;;;;;;11.17;100.00;100110.59;5094583;28;20024;-63
2023/10/24 02:42:17;;;;;;;5.05;3.40;;;;;;;11.21;100.00;100109.41;5095244;28;20027;-63
2023/10/24 02:44:42;;;;;;;4.45;3.80;;;;;;;11.24;100.00;100116.31;5092384;28;20436;-63
2023/10/24 02:47:08;;;;;;;6.22;5.63;;;;;;;11.12;100.00;100102.97;5094139;28;20024;-63
2023/10/24 02:49:33;;;;;;;4.97;4.32;;;;;;;11.21;100.00;100108.56;5094316;28;20024;-63
2023/10/24 02:51:59;;;;;;;6.13;5.57;;;;;;;11.07;100.00;100118.44;5059823;28;20140;-63
2023/10/24 02:54:24;;;;;;;4.30;3.90;;;;;;;11.16;100.00;100119.53;5092575;28;20209;-62
2023/10/24 02:56:50;;;;;;;6.70;4.45;;;;;;;11.17;100.00;100109.75;5091536;28;20107;-62
2023/10/24 02:59:16;;;;;;;4.55;4.10;;;;;;;11.15;100.00;100131.16;5064852;28;20394;-63
2023/10/24 03:01:41;;;;;;;5.53;4.65;;;;;;;11.14;100.00;100130.28;5086980;28;20077;-63
2023/10/24 03:04:07;;;;;;;5.43;4.43;;;;;;;11.15;100.00;100128.50;5093436;28;20016;-62
2023/10/24 03:06:32;;;;;;;5.00;4.22;;;;;;;11.18;100.00;100132.72;5058110;28;20059;-62
2023/10/24 03:08:57;;;;;;;4.95;4.45;;;;;;;11.18;100.00;100124.72;5080593;28;20098;-62
2023/10/24 03:11:23;;;;;;;6.75;6.25;;;;;;;11.10;100.00;100131.50;5080110;28;20433;-62
2023/10/24 03:13:51;;;;;;;4.60;4.18;;;;;;;11.15;100.00;100136.50;5067178;28;20046;-62
2023/10/24 03:16:17;;;;;;;4.97;4.22;;;;;;;11.13;100.00;100133.94;5093231;28;20012;-62
2023/10/24 03:18:42;;;;;;;5.70;4.50;;;;;;;11.13;100.00;100133.94;5092130;28;20026;-62
2023/10/24 03:21:08;;;;;;;5.00;4.10;;;;;;;11.12;100.00;100132.25;5087150;28;20024;-62
2023/10/24 03:23:33;;;;;;;5.03;4.53;;;;;;;11.12;100.00;100131.41;5081680;28;20099;-62
2023/10/24 03:26:00;;;;;;;6.70;6.13;;;;;;;11.04;100.00;100134.63;5074586;28;20026;-62
2023/10/24 03:28:26;;;;;;;4.22;3.85;;;;;;;11.08;100.00;100138.75;5075802;28;20081;-63
2023/10/24 03:31:02;;;;;;;5.00;3.97;;;;;;;11.11;100.00;100133.19;5074265;28;20338;-62
2023/10/24 03:33:28;;;;;;;10.15;5.18;;;;;;;11.15;100.00;100141.81;5092763;28;20032;-63
2023/10/24 03:35:57;;;;;;;4.63;4.22;;;;;;;11.12;100.00;100144.72;5075156;28;20016;-62
2023/10/24 03:38:23;;;;;;;5.25;4.75;;;;;;;11.07;100.00;100136.22;5093556;28;20031;-63
2023/10/24 03:40:49;;;;;;;6.07;5.47;;;;;;;11.06;100.00;100134.50;5093130;28;20387;-62
2023/10/24 03:43:14;;;;;;;4.40;4.00;;;;;;;11.04;100.00;100131.97;5093255;28;20064;-63
2023/10/24 03:45:40;;;;;;;7.28;6.57;;;;;;;10.98;100.00;100136.94;5093254;28;20386;-62
2023/10/24 03:48:05;;;;;;;7.32;6.82;;;;;;;11.00;100.00;100140.31;5093379;28;20457;-63
2023/10/24 03:50:35;;;;;;;7.93;7.13;;;;;;;11.00;100.00;100137.63;5093758;28;20140;-62
2023/10/24 03:53:03;;;;;;;6.13;4.45;;;;;;;11.08;100.00;100132.59;5074782;28;20379;-63
2023/10/24 03:55:29;;;;;;;7.15;6.45;;;;;;;10.96;100.00;100139.69;5093471;28;20046;-63
2023/10/24 03:57:54;;;;;;;7.40;6.80;;;;;;;11.02;100.00;100141.03;5092940;28;20426;-62
2023/10/24 04:00:20;;;;;;;7.18;6.57;;;;;;;10.98;100.00;100145.75;5071674;28;20119;-63
2023/10/24 04:02:46;;;;;;;7.13;6.53;;;;;;;10.98;100.00;100145.75;5091451;28;20028;-63
2023/10/24 04:05:14;;;;;;;6.80;6.28;;;;;;;10.99;100.00;100142.13;5090428;28;20102;-63
2023/10/24 04:07:39;;;;;;;5.75;4.35;;;;;;;11.05;100.00;100144.31;5081795;28;20029;-62
2023/10/24 04:10:05;;;;;;;4.80;4.35;;;;;;;11.07;100.00;100144.22;5055103;28;20040;-62
2023/10/24 04:12:30;;;;;;;5.43;3.88;;;;;;;11.06;100.00;100134.50;5090101;28;20437;-62
2023/10/24 04:14:58;;;;;;;5.32;4.60;;;;;;;11.05;100.00;100138.16;5071959;28;20032;-63
2023/10/24 04:17:23;;;;;;;5.10;3.70;;;;;;;11.10;100.00;100142.16;5090005;28;20032;-63
2023/10/24 04:19:49;;;;;;;4.85;4.35;;;;;;;11.01;100.00;100134.03;5062177;28;20043;-62
2023/10/24 04:22:14;;;;;;;4.47;4.00;;;;;;;11.03;100.00;100124.97;5069420;28;20036;-63
2023/10/24 04:24:40;;;;;;;4.85;4.35;;;;;;;10.99;100.00;100120.00;5090890;28;20059;-62
2023/10/24 04:27:07;;;;;;;8.00;7.30;;;;;;;10.94;100.00;100116.81;5092486;28;20028;-63
2023/10/24 04:29:35;;;;;;;8.07;4.55;;;;;;;10.93;100.00;100105.34;5092672;28;20027;-63
2023/10/24 04:32:03;;;;;;;5.20;4.70;;;;;;;10.99;100.00;100104.88;5074532;28;20028;-63
2023/10/24 04:34:29;;;;;;;7.18;6.60;;;;;;;10.97;100.00;100101.50;5073827;28;20028;-63
2023/10/24 04:36:54;;;;;;;4.75;4.20;;;;;;;11.01;100.00;100100.28;5091583;28;20039;-63
2023/10/24 04:39:19;;;;;;;3.88;3.47;;;;;;;11.01;100.00;100102.94;5092093;28;20485;-62
2023/10/24 04:41:48;;;;;;;7.32;6.72;;;;;;;10.85;100.00;100095.31;5092744;28;20035;-63
2023/10/24 04:44:14;;;;;;;7.05;4.57;;;;;;;10.95;100.00;100100.75;5091510;28;20035;-63
2023/10/24 04:46:40;;;;;;;4.78;4.28;;;;;;;10.95;100.00;100110.56;5091407;28;20032;-63
2023/10/24 04:49:05;;;;;;;6.32;4.15;;;;;;;10.94;100.00;100108.84;5073419;28;20103;-63
2023/10/24 04:51:33;;;;;;;5.15;4.65;;;;;;;10.93;100.00;100109.81;5089933;28;20097;-62
2023/10/24 04:53:58;;;;;;;6.05;5.18;;;;;;;10.88;100.00;100095.06;5089930;28;20024;-63
2023/10/24 04:56:24;;;;;;;4.38;3.97;;;;;;;10.99;100.00;100114.66;5073193;28;20086;-63
2023/10/24 04:58:50;;;;;;;5.43;4.75;;;;;;;10.96;100.00;100113.09;5095489;28;20501;-63
2023/10/24 05:01:16;;;;;;;6.45;4.97;;;;;;;10.94;100.00;100119.47;5091243;28;20023;-62
2023/10/24 05:03:41;;;;;;;4.68;4.28;;;;;;;10.89;100.00;100098.56;5056151;28;20398;-63
2023/10/24 05:06:07;;;;;;;5.88;4.82;;;;;;;10.93;100.00;100105.34;5068743;28;20096;-63
2023/10/24 05:08:32;;;;;;;4.97;4.25;;;;;;;10.97;100.00;100114.81;5080480;28;20027;-63
2023/10/24 05:10:58;;;;;;;6.97;6.47;;;;;;;10.84;100.00;100106.88;5083119;28;20051;-63
2023/10/24 05:13:23;;;;;;;4.95;4.40;;;;;;;10.92;100.00;100111.63;5091817;28;20027;-63
2023/10/24 05:15:49;;;;;;;6.60;6.10;;;;;;;10.86;100.00;100120.09;5085714;28;20024;-62
2023/10/24 05:18:15;;;;;;;7.25;6.55;;;;;;;10.82;100.00;100115.94;5076249;28;20028;-63
2023/10/24 05:20:40;;;;;;;7.88;4.32;;;;;;;10.92;100.00;100114.28;5081752;28;20051;-63
2023/10/24 05:23:07;;;;;;;10.18;4.45;;;;;;;10.91;100.00;100116.13;5096885;28;20447;-63
2023/10/24 05:25:35;;;;;;;5.30;4.75;;;;;;;10.91;100.00;100113.47;5078880;28;20513;-63
2023/10/24 05:28:00;;;;;;;4.63;4.10;;;;;;;10.93;100.00;100117.81;5067651;28;20748;-63
2023/10/24 05:30:26;;;;;;;4.43;3.95;;;;;;;10.92;100.00;100108.97;5090639;28;20030;-63
2023/10/24 05:32:55;;;;;;;3.72;3.40;;;;;;;10.93;100.00;100107.16;5111269;28;20028;-63
2023/10/24 05:35:20;;;;;;;8.77;4.77;;;;;;;10.91;100.00;100092.16;5090481;28;20039;-62
2023/10/24 05:37:46;;;;;;;4.55;4.15;;;;;;;10.90;100.00;100086.94;5090869;28;20274;-63
2023/10/24 05:40:11;;;;;;;4.55;4.15;;;;;;;10.92;100.00;100085.03;5091398;28;20467;-63
2023/10/24 05:42:36;;;;;;;5.75;4.90;;;;;;;10.91;100.00;100091.28;5092719;28;20035;-63
2023/10/24 05:45:02;;;;;;;4.35;3.95;;;;;;;10.88;100.00;100097.72;5073298;28;20169;-62
2023/10/24 05:47:28;;;;;;;4.00;3.65;;;;;;;10.86;100.00;100106.78;5072770;28;20428;-63
2023/10/24 05:49:53;;;;;;;7.03;6.43;;;;;;;10.74;100.00;100095.28;5072772;28;20036;-63
2023/10/24 05:52:19;;;;;;;3.60;3.30;;;;;;;10.86;100.00;100110.28;5090394;28;20035;-63
2023/10/24 05:54:44;;;;;;;4.75;3.70;;;;;;;10.78;100.00;100099.38;5070202;28;20032;-62
2023/10/24 05:57:09;;;;;;;7.82;6.18;;;;;;;10.78;100.00;100107.34;5089773;28;20024;-62
2023/10/24 05:59:35;;;;;;;4.70;3.20;;;;;;;10.79;100.00;100111.69;5073170;28;20056;-62
2023/10/24 06:02:00;;;;;;;3.33;3.10;;;;;;;10.89;100.00;100114.53;5072321;28;20034;-63
2023/10/24 06:04:26;;;;;;;5.50;3.67;;;;;;;10.83;100.00;100117.66;5091343;28;20113;-63
2023/10/24 06:06:51;;;;;;;3.67;3.30;;;;;;;10.84;100.00;100130.00;5088205;28;21566;-62
2023/10/24 06:09:17;;;;;;;3.70;3.30;;;;;;;10.79;100.00;100121.50;5089595;28;20052;-62
2023/10/24 06:11:43;;;;;;;5.82;3.30;;;;;;;10.80;100.00;100121.41;5057053;28;20036;-63
2023/10/24 06:14:08;;;;;;;3.95;3.20;;;;;;;10.81;100.00;100120.41;5071012;28;20086;-62
2023/10/24 06:16:34;;;;;;;3.88;3.30;;;;;;;10.80;100.00;100107.25;5071317;28;20031;-63
2023/10/24 06:18:59;;;;;;;3.20;2.90;;;;;;;10.83;100.00;100105.19;5085320;28;20032;-62
2023/10/24 06:21:26;;;;;;;7.00;3.72;;;;;;;10.84;100.00;100101.56;5052661;28;20020;-63
2023/10/24 06:23:53;;;;;;;5.95;5.10;;;;;;;10.80;100.00;100104.59;5070772;28;20033;-62
2023/10/24 06:26:19;;;;;;;5.30;3.85;;;;;;;10.87;100.00;100100.50;5086299;28;20032;-62
2023/10/24 06:28:45;;;;;;;5.88;5.38;;;;;;;10.78;100.00;100102.03;5061023;28;20031;-62
2023/10/24 06:31:10;;;;;;;3.72;3.33;;;;;;;10.78;100.00;100103.84;5089650;28;20471;-62
2023/10/24 06:33:37;;;;;;;5.57;5.18;;;;;;;10.72;100.00;100109.63;5073069;28;20055;-62
2023/10/24 06:36:03;;;;;;;5.43;5.03;;;;;;;10.74;100.00;100123.69;5086076;28;20089;-62
2023/10/24 06:38:30;;;;;;;4.68;3.92;;;;;;;10.81;100.00;100127.56;5090970;28;20029;-62
2023/10/24 06:40:55;;;;;;;4.07;3.67;;;;;;;10.81;100.00;100130.22;5092067;28;20035;-62
2023/10/24 06:43:21;;;;;;;5.70;4.05;;;;;;;10.82;100.00;100151.38;5056357;28;20222;-62
2023/10/24 06:45:47;;;;;;;5.13;4.20;;;;;;;10.84;100.00;100143.28;5072104;28;20056;-63
2023/10/24 06:48:13;;;;;;;5.32;3.75;;;;;;;10.81;100.00;100143.53;5070818;28;20037;-62
2023/10/24 06:50:39;;;;;;;7.53;6.82;;;;;;;10.75;100.00;100134.19;5073717;28;20102;-63
2023/10/24 06:53:09;;;;;;;5.03;4.28;;;;;;;10.80;100.00;100124.06;5076755;28;20080;-62
2023/10/24 06:55:35;;;;;;;6.57;4.32;;;;;;;10.82;100.00;100122.09;5073333;28;20074;-62
2023/10/24 06:58:01;;;;;;;6.57;4.55;;;;;;;10.81;100.00;100117.75;5093895;28;20032;-62
2023/10/24 07:00:28;;;;;;;8.13;6.88;;;;;;;10.78;100.00;100118.00;5076202;28;20027;-62
2023/10/24 07:02:55;;;;;;;8.82;4.95;;;;;;;10.84;100.00;100119.34;5093427;28;20039;-62
2023/10/24 07:05:21;;;;;;;7.60;6.93;;;;;;;10.81;100.00;100116.91;5092060;28;20460;-62
2023/10/24 07:07:47;;;;;;;7.38;5.30;;;;;;;10.89;100.00;100115.38;5060703;28;20107;-62
2023/10/24 07:10:14;;;;;;;7.40;5.20;;;;;;;10.90;100.00;100106.41;5082529;28;20040;-62
2023/10/24 07:12:40;;;;;;;5.13;4.38;;;;;;;10.89;100.00;100120.69;5076320;28;20039;-62
2023/10/24 07:15:07;;;;;;;9.95;5.13;;;;;;;10.90;100.00;100118.88;5093209;28;20016;-62
2023/10/24 07:17:33;;;;;;;8.70;7.70;;;;;;;10.81;100.00;100111.59;5076391;28;20078;-62
2023/10/24 07:20:01;;;;;;;6.78;4.68;;;;;;;10.89;100.00;100115.38;5083924;28;20016;-62
2023/10/24 07:22:29;;;;;;;10.00;5.00;;;;;;;10.93;100.00;100109.81;5055667;28;20495;-62
2023/10/24 07:24:55;;;;;;;7.88;5.82;;;;;;;10.95;100.00;100114.06;5078950;28;20024;-63
2023/10/24 07:27:21;;;;;;;9.65;8.63;;;;;;;10.90;100.00;100114.41;5084438;28;20097;-62
2023/10/24 07:29:47;;;;;;;10.13;5.40;;;;;;;11.00;100.00;100125.22;5073030;28;20380;-62
2023/10/24 07:32:13;;;;;;;7.82;5.03;;;;;;;11.02;100.00;100127.72;5073508;28;20033;-63
2023/10/24 07:34:44;;;;;;;9.65;5.65;;;;;;;10.99;100.00;100112.84;5093294;28;20020;-62
2023/10/24 07:37:09;;;;;;;6.38;5.25;;;;;;;11.05;100.00;100112.38;5093143;28;20096;-62
2023/10/24 07:39:35;;;;;;;7.93;5.40;;;;;;;11.10;100.00;100118.19;5093723;28;20467;-62
2023/10/24 07:42:01;;;;;;;7.32;5.80;;;;;;;11.08;100.00;100108.63;5093833;28;20024;-62
2023/10/24 07:44:27;;;;;;;8.15;5.90;;;;;;;11.12;100.00;100115.44;5075099;28;20027;-63
2023/10/24 07:46:52;;;;;;;7.28;4.95;;;;;;;11.08;100.00;100109.47;5074765;28;20054;-62
2023/10/24 07:49:18;;;;;;;10.23;9.18;;;;;;;11.07;100.00;100113.13;5074513;28;20065;-62
2023/10/24 07:51:43;;;;;;;9.88;5.70;;;;;;;11.12;100.00;100105.63;5092715;28;20020;-63
2023/10/24 07:54:10;;;;;;;9.90;6.35;;;;;;;11.19;100.00;100111.31;5092954;28;20016;-63
2023/10/24 07:56:37;;;;;;;9.90;6.07;;;;;;;11.24;100.00;100108.31;5092929;28;20049;-62
2023/10/24 07:59:03;;;;;;;6.47;5.53;;;;;;;11.27;100.00;100108.91;5092902;28;20036;-62
2023/10/24 08:01:29;;;;;;;7.95;5.63;;;;;;;11.31;100.00;100104.19;5092913;28;20111;-62
2023/10/24 08:03:54;;;;;;;9.23;8.27;;;;;;;11.22;100.00;100104.91;5074363;28;20106;-63
2023/10/24 08:06:20;;;;;;;6.00;5.05;;;;;;;11.35;100.00;100110.97;5092518;28;20417;-63
2023/10/24 08:08:45;;;;;;;9.82;8.50;;;;;;;11.26;100.00;100103.69;5092696;28;20028;-61
2023/10/24 08:11:11;;;;;;;6.93;4.93;;;;;;;11.39;100.00;100108.94;5074944;28;20016;-62
2023/10/24 08:13:37;;;;;;;6.03;5.43;;;;;;;11.49;100.00;100110.72;5092957;28;20028;-62
2023/10/24 08:16:02;;;;;;;6.32;5.53;;;;;;;11.52;100.00;100110.50;5089319;28;20016;-62
2023/10/24 08:18:27;;;;;;;8.05;6.05;;;;;;;11.60;100.00;100116.06;5083694;28;20399;-62
2023/10/24 08:20:53;;;;;;;9.02;8.13;;;;;;;11.59;100.00;100111.72;5091945;28;20463;-62
2023/10/24 08:23:19;;;;;;;9.20;7.80;;;;;;;11.63;100.00;100106.97;5092950;28;20026;-62
2023/10/24 08:25:45;;;;;;;8.88;5.60;;;;;;;11.72;100.00;100116.06;5092738;28;20028;-62
2023/10/24 08:28:10;;;;;;;8.70;5.40;;;;;;;11.78;100.00;100110.25;5069835;28;20020;-63
2023/10/24 08:30:35;;;;;;;7.90;5.60;;;;;;;11.81;100.00;100118.81;5078443;28;20395;-62
2023/10/24 08:33:01;;;;;;;6.75;5.15;;;;;;;11.85;100.00;100114.13;5105644;28;20032;-63
2023/10/24 08:35:29;;;;;;;6.45;4.95;;;;;;;11.85;100.00;100134.56;5086287;28;20047;-63
2023/10/24 08:37:54;;;;;;;6.10;4.57;;;;;;;11.87;100.00;100140.66;5084838;28;20040;-62
2023/10/24 08:40:20;;;;;;;5.60;4.68;;;;;;;11.84;100.00;100147.06;5066897;28;20529;-63
2023/10/24 08:42:45;;;;;;;11.63;5.00;;;;;;;11.89;100.00;100146.72;5091765;28;20091;-63
2023/10/24 08:45:16;;;;;;;8.15;6.03;;;;;;;11.93;100.00;100142.84;5091412;28;20095;-63
2023/10/24 08:47:43;;;;;;;8.40;4.90;;;;;;;11.96;100.00;100126.59;5091086;28;20442;-63
2023/10/24 08:50:09;;;;;;;5.18;4.32;;;;;;;12.03;100.00;100146.47;5090687;28;20027;-62
2023/10/24 08:52:34;;;;;;;5.78;5.28;;;;;;;11.90;100.00;100127.09;5090500;28;20069;-63
2023/10/24 08:55:01;;;;;;;7.25;5.80;;;;;;;11.92;100.00;100136.66;5087647;28;20471;-63
2023/10/24 08:57:34;;;;;;;6.80;5.93;;;;;;;11.91;100.00;100137.66;5085955;28;20559;-63
2023/10/24 09:00:03;;;;;;;4.25;3.85;;;;;;;11.98;100.00;100128.19;5091750;28;20031;-63
2023/10/24 09:02:30;;;;;;;5.40;4.55;;;;;;;12.06;100.00;100146.22;5091252;28;20057;-63
2023/10/24 09:04:59;;;;;;;8.45;7.32;;;;;;;11.81;100.00;100128.66;5091002;28;20413;-63
2023/10/24 09:07:24;;;;;;;9.73;5.40;;;;;;;11.90;100.00;100117.28;5090364;28;20028;-62
2023/10/24 09:09:50;;;;;;;9.10;6.15;;;;;;;11.96;100.00;100129.25;5090229;28;20047;-62
2023/10/24 09:12:16;;;;;;;9.10;6.88;;;;;;;11.94;100.00;100134.72;5072415;28;20024;-63
2023/10/24 09:14:48;;;;;;;13.25;12.02;;;;;;;11.87;100.00;100128.19;5073183;28;20444;-63
2023/10/24 09:17:17;;;;;;;12.70;11.50;;;;;;;11.87;100.00;100109.53;5091178;28;20031;-63
2023/10/24 09:19:43;;;;;;;12.77;11.40;;;;;;;11.88;100.00;100094.38;5067542;28;20093;-63
2023/10/24 09:22:09;;;;;;;13.98;12.50;;;;;;;12.00;100.00;100109.38;5090596;28;20036;-63
2023/10/24 09:24:35;;;;;;;13.00;7.90;;;;;;;12.11;100.00;100116.50;5088518;28;20035;-62
2023/10/24 09:27:01;;;;;;;15.32;12.60;;;;;;;12.07;100.00;100101.75;5091476;28;20028;-63
2023/10/24 09:29:27;;;;;;;12.63;7.10;;;;;;;12.22;100.00;100100.50;5071892;28;20035;-63
2023/10/24 09:31:58;;;;;;;14.07;8.10;;;;;;;12.29;100.00;100107.00;5088749;28;20101;-63
2023/10/24 09:34:24;;;;;;;12.65;8.05;;;;;;;12.36;100.00;100099.38;5071734;28;20020;-63
2023/10/24 09:36:50;;;;;;;10.65;7.60;;;;;;;12.48;100.00;100109.03;5087768;28;20150;-63
2023/10/24 09:39:19;;;;;;;12.48;9.95;;;;;;;12.47;100.00;100115.31;5087504;28;20371;-63
2023/10/24 09:41:49;;;;;;;10.25;7.82;;;;;;;12.63;100.00;100125.56;5091149;28;20035;-62
2023/10/24 09:44:16;;;;;;;10.18;9.02;;;;;;;12.52;99.65;100117.59;5085522;28;20027;-62
2023/10/24 09:46:43;;;;;;;11.38;9.40;;;;;;;12.47;100.00;100109.97;5091029;28;20637;-62
2023/10/24 09:49:08;;;;;;;8.85;8.05;;;;;;;12.54;100.00;100099.66;5084646;28;20021;-63
2023/10/24 09:51:38;;;;;;;6.38;5.25;;;;;;;12.59;99.92;100095.63;5064645;28;20490;-63
2023/10/24 09:54:04;;;;;;;;;;;;;;;12.59;100.00;100094.78;5084519;28;20028;-63
2023/10/24 09:56:30;;;;;;;8.25;5.30;;;;;;;12.50;100.00;100089.25;5085042;28;19912;-62
2023/10/24 09:58:56;;;;;;;9.00;4.88;;;;;;;12.47;100.00;100078.84;5089542;28;20039;-62
2023/10/24 10:01:22;;;;;;;7.38;6.50;;;;;;;12.33;100.00;100087.13;5084439;28;20387;-63
2023/10/24 10:03:51;;;;;;;7.57;6.78;;;;;;;12.39;100.00;100096.44;5072890;28;20490;-62
2023/10/24 10:06:17;;;;;;;7.55;4.90;;;;;;;12.45;100.00;100094.13;5103217;28;20115;-63
2023/10/24 10:08:42;;;;;;;4.93;3.70;;;;;;;12.41;100.00;100095.34;5078732;28;20035;-61
2023/10/24 10:11:08;;;;;;;8.07;6.72;;;;;;;12.38;100.00;100108.06;5069854;28;20027;-62
2023/10/24 10:13:38;;;;;;;5.93;4.82;;;;;;;12.42;100.00;100098.84;5093972;28;20028;-62
2023/10/24 10:16:32;;;;;;;7.07;5.60;;;;;;;12.48;100.00;100107.19;5076272;28;20047;-62
2023/10/24 10:19:33;;;;;;;11.60;7.00;;;;;;;12.37;100.00;100111.72;5076387;28;20028;-62
2023/10/24 10:22:29;;;;;;;5.63;4.50;;;;;;;12.37;100.00;100117.91;5094783;28;20030;-62
2023/10/24 10:25:19;;;;;;;7.35;6.65;;;;;;;12.26;100.00;100125.94;5093851;28;20028;-62
2023/10/24 10:27:53;;;;;;;5.50;4.32;;;;;;;12.33;100.00;100119.13;5076874;28;20036;-63
2023/10/24 10:30:50;;;;;;;8.90;4.40;;;;;;;12.37;100.00;100112.56;5074701;28;20036;-62
2023/10/24 10:33:18;;;;;;;8.82;6.22;;;;;;;12.18;100.00;100113.25;5093453;28;20032;-62
2023/10/24 10:35:57;;;;;;;5.53;3.97;;;;;;;12.26;100.00;100107.25;5066904;28;20462;-62
2023/10/24 10:38:47;;;;;;;6.07;5.00;;;;;;;12.23;100.00;100110.19;5088135;28;20024;-62
2023/10/24 10:41:21;;;;;;;6.35;4.15;;;;;;;12.30;100.00;100103.38;5091477;28;20110;-62
2023/10/24 10:44:05;;;;;;;7.15;4.65;;;;;;;12.21;100.00;100107.66;5071571;28;20078;-62
2023/10/24 10:46:32;;;;;;;7.07;6.38;;;;;;;12.10;100.00;100099.69;5094708;28;20146;-62
2023/10/24 10:49:06;;;;;;;5.53;4.70;;;;;;;12.18;100.00;100099.06;5094452;28;20024;-63
2023/10/24 10:51:41;;;;;;;6.43;5.28;;;;;;;12.23;100.00;100095.03;5074623;28;20498;-63
2023/10/24 10:54:37;;;;;;;8.30;6.60;;;;;;;12.12;100.00;100103.06;5087648;28;20028;-62
2023/10/24 10:57:04;;;;;;;8.73;7.63;;;;;;;12.05;100.00;100099.19;5077369;28;20424;-63
2023/10/24 10:59:45;;;;;;;5.53;4.53;;;;;;;12.11;100.00;100096.03;5093557;28;20040;-62
2023/10/24 11:02:32;;;;;;;10.68;5.40;;;;;;;12.11;100.00;100097.84;5093829;28;20035;-62
2023/10/24 11:04:58;;;;;;;6.10;5.50;;;;;;;12.07;100.00;100094.59;5077045;28;20031;-63
2023/10/24 11:07:59;;;;;;;8.68;7.75;;;;;;;12.00;100.00;100098.72;5092793;28;20036;-63
2023/10/24 11:10:24;;;;;;;5.53;4.97;;;;;;;12.03;100.00;100103.84;5088168;28;20052;-62
2023/10/24 11:12:50;;;;;;;11.23;5.50;;;;;;;11.94;100.00;100102.75;5092327;28;20501;-62
2023/10/24 11:15:17;;;;;;;7.38;5.03;;;;;;;11.94;100.00;100112.53;5075491;28;20032;-66
2023/10/24 11:17:46;;;;;;;8.57;7.85;;;;;;;11.89;100.00;100123.59;5092182;28;20040;-66